Jenis Tanggal dan Waktu Data
Tafor2021-03-06 05:44:50TAF WAJI 060500Z 0606/0618 29004KT 9999 FEW015= TAF WAVV 060500Z 0606/0618 15015KT 9999 SCT020 TEMPO 0606/0610 8000 VCSH FEW018CB SCT020 BECMG 0610/0612 15005KT 3000 BR BKN005= TAF WAKT 060500Z 0606/0618 30008KT 260V340 8000 FEW009 FEW010 TEMPO 0609/0613 6000 -RA FEW010CB SCT012= TAF WAKK 060500Z 0606/0618 31007KT 9999 BKN015 TEMPO 0609/0612 5000 -RA TEMPO 0615/0618 4000 RA=
Tafor2021-03-06 05:44:30TAF WAJJ 060500Z 0606/0706 28017KT 9999 SCT013 TEMPO 0606/0609 VCSH FEW012CB FEW013 BECMG 0613/0615 00000KT=
Tafor2021-03-03 22:53:14FTID43 WAJJ 032300 TAF WAJI 032300Z 0400/0412 26004KT 6000 -RA FEW014CB SCT015 BECMG 0402/0403 9999 NSW SCT014= TAF WAVV 032300Z 0400/0412 15004KT 9999 SCT020 BECMG 0403/0405 16018KT= TAF WAKT 032300Z 0400/0412 31004KT 9999 SCT010= TAF WAKK 032300Z 0400/0412 30010KT 9000 BKN015 TEMPO 0400/0403 5000 -RA TEMPO 0406/0409 5000 -RA= FTID31 WAJJ 032300 TAF WAJJ 032300Z 0400/0424 26008KT 6000 -RA SCT011 BECMG 0401/0403 9999 NSW TEMPO 0406/0409 FEW012CB FEW014=
Tafor2021-03-03 17:04:15FTID43 WAJJ 031700 TAF WAJI 031700Z 0318/0406 00000KT 9000 SCT015 BECMG 0320/0322 26003KT= TAF WAVV 031700Z 0318/0406 15003KT 2000 BR BKN003 BECMG 0321/0323 9000 NSW SCT020= TAF WAKT 031700Z 0318/0406 26004KT 9000 SCT010= TAF WAKK 031700Z 0318/0406 32004KT 9000 SCT014= FTID31 WAJJ 031700 TAF WAJJ 031700Z 0318/0418 00000KT 9999 FEW013 TEMPO 0319/0321 5000 -RA BKN010 BECMG 0321/0422 15004KT BECMG 0403/0405 28010KT=
Tafor2021-03-02 04:50:26TAF WAJI 020500Z 0206/0218 29004KT 9000 FEW014= TAF WAVV 020500Z 0206/0218 14030KT 9999 SCT020 TEMPO 0206/0208 VCSH BKN015 BECMG 0209/0211 15005KT 3000 BR BKN005= TAF WAKT 020500Z 0206/0218 28006KT 8000 FEW008 TEMPO 0206/0209 -RA FEW010CB SCT012= TAF WAKK 020500Z 0206/0218 27010KT 9999 SCT015 BECMG 0210/0212 30008KT 8000 TEMPO 0215/0218 4000 SHRA BKN015 =
Tafor2021-03-02 04:50:00TAF WAJJ 020500Z 0206/0306 28020KT 9999 FEW013 TEMPO 0206/0208 VCSH FEW012CB SCT013 PROB30 TEMPO 0209/0213 -RA BECMG 0214/0215 09003KT BECMG 0222/0224 14005KT=
Tafor2021-02-24 22:02:35TAF WAJJ 241100Z 2412/2512 31007KT 9999 -RA FEW012CB SCT013 TEMPO 2413/2417 7000 -RA BKN011 BECMG 2418/2119 00000KT=
Tafor2021-02-24 22:02:08TAF WAJJ 241700Z 2418/2518 00000KT 8000 RA SCT012 TEMPO 2417/2421 5000 RA TEMPO 2422/2501 5000 RA BECMG 2502/2503 7000=
Tafor2021-02-21 10:58:55FTID43 WAJJ 211100 TAF WAJI 211100Z 2112/2124 00000KT 9000 SCT016 TEMPO 2114/2116 5000 RA BKN014= TAF WAVV 211100Z 2112/2124 16003KT 6000 BKN012 TEMPO 2112/2114 -RA BECMG 2114/2116 3000 BR BKN003= TAF WAKT 211100Z 2112/2124 00000KT 8000 FEW010 TEMPO 2114/2117 4000 -RA BKN009= TAF WAKK 211100Z 2112/2124 28004KT 8000 SCT016 PROB40 TEMPO 2113/2115 -RA= FTID31 WAJJ 211100 TAF WAJJ 211100Z 2112/2212 28003KT 9999 SCT013 PROB40 TEMPO 2113/2115 6000 RA BKN011 BECMG 2116/2118 00000KT=
Tafor2021-02-18 05:38:18FTID31 WAJJ 180537 TAF AMD WAJJ 180537Z 1806/1906 13004KT 9999 SCT013 TEMPO 1806/1809 28006 VCSH FEW012CB SCT013 BECMG 1813/1815 00000KT=
Tafor2021-02-18 04:51:16FTID31 WAJJ 180500 TAF WAJJ 180500Z 1806/1906 27008KT 5000 RA FEW012CB SCT013 BECMG 1808/1809 9000 NSW SCT012 BECMG 1813/1815 00000KT= FTID43 WAJJ 180500 TAF WAJI 180500Z 1806/1818 30010KT 5000 RA FEW014CB SCT015 BECMG 1808/1809 00000KT 9000 NSW SCT014= TAF WAVV 180500Z 1806/1818 15014KT 9999 BKN017 TEMPO 1806/1808 6000 -RA BECMG 1811/1813 15003KT 3000 BR BKN004= TAF WAKT 180500Z 1806/1818 29006KT 9999 SCT010= TAF WAKK 180500Z 1806/1818 23009KT 9000 BKN017 TEMPO 1806/1808 5000 SHRA FEW013CB BECMG 1812/1814 00000KT 7000=
Tafor2021-02-16 04:55:44FTID43 WAJJ 160500 TAF WAJI 160500Z 1606/1618 29003KT 9999 FEW014= TAF WAVV 160500Z 1606/1618 15014KT 9999 BKN019 PROB40 TEMPO 1606/1608 6000 -RA BKN010 BECMG 1610/1612 3000 15003KT BR BKN004= TAF WAKT 160500Z 1606/1618 33002KT 9999 SCT010 TEMPO 1606/1608 6000 RA BKN008= TAF WAKK 160500Z 1608/1618 30008KT 9000 BKN015 TEMPO 1606/1609 5000 -RA= FTID31 WAJJ 160500 TAF WAJJ 160500Z 1606/1706 28008KT 9999 SCT013 TEMPO 1606/1609 VCSH FEW012CB SCT013 BECMG 1614/1616 00000KT=
Tafor2021-02-11 22:47:45FTID31 WAJJ 112300 TAF WAJJ 112300Z 1200/1224 15004KT 9999 SCT013 BECMG 1203/1205 28008KT TEMPO 1206/1209 VCSH FEW012CB FEW013 BECMG 1214/1216 00000KT= FTID43 WAJJ 112300 TAF WAJI 112300Z 1200/1212 30004KT 9999 FEW015 BECMG 1208/1210 00000KT 7000= TAF WAVV 112300Z 1200/1212 33003KT 9999 SCT020 TEMPO 1201/1203 7000 -RA BECMG 1202/1204 15016KT 9999= TAF WAKT 112300Z 1200/1212 26004KT 9999 SCT010 BECMG 1209/1211 00000KT 7000= TAF WAKK 102300Z 1100/1112 32005KT 9999 SCT016=
Tafor2021-02-11 16:53:57FTID31 WAJJ 111700 TAF WAJJ 111700Z 1118/1218 00000KT 9999 FEW013 PROB40 TEMPO 1119/1122 7000 -RA BECMG 1121/1122 28004KT= FTID43 WAJJ 111700 TAF WAJI 111700Z 1118/1206 00000KT 7000 FEW015 BECMG 1120/1122 08004KT 9999= TAF WAVV 111700Z 1118/1206 00000KT 3000 BR BKN004 BECMG 1121/1123 33003KT 7000 NSW BKN015= TAF WAKT 111700Z 1118/1206 00000KT 7000 SCT010 BECMG 1120/1122 28004KT 9999= TAF WAKK 111700Z 1118/1206 32004KT 7000 SCT016=
Tafor2021-02-11 10:52:23FTID31 WAJJ 111100 TAF WAJJ 111100Z 1112/1212 26004KT 9999 FEW013 PROB40 TEMPO 1114/1117 7000 -RA BECMG 1116/1118 00000KT= FTID43 WAJJ 111100 TAF WAJI 111100Z 1112/1124 00000KT 8000 SCT015= TAF WAVV 111100Z 1112/1124 15003KT 3000 BR BKN004 TEMPO 1114/1116 RA BECMG 1121/1123 7000 NSW BKN015= TAF WAKT 111100Z 1112/1124 00000KT 9000 SCT010 TEMPO 1113/1116 5000 -RA BKN009= TAF WAKK 111100Z 1112/1124 28006KT 9000 SCT016 TEMPO 1112/1115 6000 RA BKN015=
Tafor2021-02-07 04:55:23FTID31 WAJJ 070500 TAF WAJJ 070500Z 0706/0806 13005KT 9000 -RA SCT012 BECMG 0708/0709 28006KT 9000 NSW TEMPO 0713/0716 6000 -RA= FTID43 WAJJ 070500 TAF WAJI 070500Z 0706/0718 08004KT 7000 -RA FEW014CB FEW015 BECMG 0708/0710 00000KT NSW SCT014= TAF WAVV 070500Z 0706/0718 15016KT 9999 BKN020 BECMG 0710/0712 15005KT 3000 BR BKN005= TAF WAKT 070500Z 0706/0718 28006KT 4000 -TSRA FEW009CB BKN010 BECMG 0708/0709 9000 NSW SCT010= TAF WAKK 070500Z 0706/0718 31008KT 9999 BKN015 TEMPO 0708/0711 5000 -RA=
Tafor2021-02-01 22:56:15FTID43 WAJJ 012300 TAF WAJI 012300Z 0200/0212 28004KT 9999 FEW014 BECMG 0210/0212 00000KT 7000= TAF WAVV 012300Z 0200/0212 15004KT 9999 SCT020 BECMG 0202/0204 15016KT= TAF WAKT 012300Z 0200/0212 28004KT 9999 SCT010 BECMG 0209/0211 00000KT 7000= TAF WAKK 012300Z 0200/0212 30007KT 9999 SCT016 TEMPO 0205/0208 5000 -RA BKN015= FTID31 WAJJ 012300 TAF WAJJ 012300Z 0200/0224 28008KT 9999 SCT013 BECMG 0209/0211 00000KT=
Tafor2021-02-01 17:00:10FTID43 WAJJ 011700 TAF WAJI 011700Z 0118/0206 00000KT 7000 -RA FEW014CB SCT015 BECMG 0120/0122 9999 NSW FEW014= TAF WAVV 011700Z 0118/0206 15008KT 3000 BR BKN005 BECMG 0121/0123 9999 NSW BKN011= TAF WAKT 011700Z 0118/0206 00000KT 9000 SCT010= TAF WAKK 011700Z 0118/0206 30004KT 7000 SCT014 BECMG 0120/0122 9999= FTID31 WAJJ 011700 TAF WAJJ 011700Z 0118/0218 00000KT 9999 SCT010 PROB40 TEMPO 0119/0121 7000 -RA BECMG 0121/0123 12003KT=
Tafor2021-02-01 11:00:48FTID43 WAJJ 011100 TAF WAJI 011100Z 0112/0124 26004KT 7000 -RA FEW014CB SCT015 BECMG 0115/0117 00000KT NSW SCT014= TAF WAVV 011100Z 0112/0124 15005KT 3000 BR BKN004 TEMPO 0114/0116 -RA BECMG 0121/0123 30003KT 7000 NSW BKN011= TAF WAKT 011100Z 0112/0124 00000KT 7000 SCT010= TAF WAKK 011100Z 0112/0124 29004KT 8000 BKN016 PROB30 TEMPO 0114/0116 -RA= FTID31 WAJJ 011100 TAF WAJJ 011100Z 0112/0212 27004KT 6000 -RA SCT010 BECMG 0114/0116 00000KT 9000 NSW BECMG 0120/0122 28003KT=
Tafor2021-02-01 05:40:25FTID31 WAJJ 010500 TAF WAJJ 01050Z 0106/0206 29015KT 9999 SCT013 TEMPO 0106/0109 VCSH FEW012CB FEW013 BECMG 0113/0115 29005KT PROB30 TEMPO 0114/0118 7000 -RA SCT010=
Tafor2021-01-22 22:59:41FTID31 WAJJ 222300 TAF WAJJ 222300Z 2300/2324 15004KT 9999 FEW013 BECMG 2304/2306 28008KT TEMPO 2306/2309 VCSH FEW012CB FEW013 BECMG 2313/2315 00000KT= FTID43 WAJJ 222300 TAF WAJI 222300Z 2300/2312 22004KT 9999 FEW014= TAF WAVV 222300Z 2300/2312 33003KT 9999 SCT020 BECMG 2303/2305 15016KT BECMG 2310/2312 15003KT 3000 BR BKN003= TAF WAKT 222300Z 2300/2312 08004KT 9999 SCT010= TAF WAKK 222300Z 2300/2312 02007KT 9999 SCT016 BECMG 2302/2303 29008KT PROB30 TEMPO 2305/2308 5000 RA TEMPO 2309/2312 4000 RA BECMG 2310/2311 6000=
Tafor2021-01-22 16:48:04FTID43 WAJJ 221700 TAF WAJI 221700Z 2218/2306 00000KT 7000 FEW014 BECMG 2220/2222 08004KT 9999= TAF WAVV 221700Z 2218/2306 33003KT 2000 BR BKN003 BECMG 2220/2222 7000 NSW BKN011= TAF WAKT 221700Z 2218/2306 00000KT 7000 SCT011 TEMPO 2218/2220 3000 RA FEW008CB BKN009= TAF WAKK 221700Z 2218/2306 26004KT 7000 SCT016 BECMG 2220/2222 35006KT 9999= FTID31 WAJJ 221700 TAF WAJJ 221700Z 2218/2318 00000KT 9999 FEW013 BECMG 2220/2221 12004KT TEMPO 2305/2308 28008KT VCSH FEW012CB FEW013= BECMG 2311/2313 00000KT=
Tafor2021-01-22 10:56:42FTID31 WAJJ 221100 TAF WAJJ 221100Z 2212/2312 00000KT 9999 FEW013 BECMG 2219/2221 12004KT TEMPO 2305/2308 28008KT VCSH FEW012CB FEW013= FTID43 WAJJ 221100 TAF WAJI 221100Z 2212/2224 00000KT 7000 FEW014 BECMG 2220/2222 08004KT 9999= TAF WAVV 221100Z 2212/2224 15004KT 6000 BKN010 BECMG 2213/2215 00000KT 2000 BR BKN003 BECMG 2221/2223 9000 NSW BKN011= TAF WAKT 221100Z 2212/2224 00000KT 7000 SCT011 PROB40 TEMPO 2214/2216 -RA BKN010= TAF WAKK 221100Z 2212/2224 25004KT 7000 SCT016=
Tafor2021-01-22 04:55:25TAF WAJI 220500Z 2106/2118 04004KT 9999 FEW014 BECMG 2211/2212 00000KT= TAF WAVV 220500Z 2206/2218 11004KT 9999 SCT020 BECMG 2210/2212 4000 BR BKN006 BECMG 2217/2219 2000 BR BKN003= TAF WAKT 220500Z 2206/2218 34004KT 6000 FEW010 SCT011= TAF WAKK 220500Z 2206/2218 28007KT 9999 SCT016 PROB30 TEMPO 2210/2213 4000 RA BECMG 2211/2212 6000=
Tafor2021-01-22 04:54:50FTID31 WAJJ 220500 TAF WAJJ 220500Z 2206/2306 16006KT 9999 FEW013 TEMPO 2206/2209 VCSH FEW012CB FEW013 BECMG 2210/2212 29005KT BECMG 2215/2217 00000KT=
Tafor2021-01-20 10:32:21FTID31 WAJJ 201100 TAF WAJJ 201100Z 2012/2112 33005KT 9999 FEW013 BECMG 2012/2014 00000KT TEMPO 2016/2020 7000 -RA BECMG 2021/2023 30005KT= FTID43 WAJJ 201100 TAF WAJI 201100Z 2012/2024 00000KT 8000 SCT014 BECMG 2022/2024 34005KT= TAF WAVV 201100Z 2012/2024 14006KT 4000 BR BKN006 BECMG 2021/2023 7000 NSW BKN012= TAF WAKT 201100Z 2012/2024 00000KT 8000 SCT009 TEMPO 2013/2017 5000 -RA BECMG 2021/2023 32005KT= TAF WAKK 201100Z 2012/2024 17006KT 8000 SCT015 TEMPO 2014/2018 4000 RA FEW013CB BKN015=
Tafor2021-01-17 21:58:15TAF WAJJ 171100Z 1712/1812 29006KT 9999 FEW013 BECMG 1712/1714 00000KT BECMG 1721/1723 14005KT=
Tafor2021-01-12 22:49:48FTID43 WAJJ 122300 TAF WAJI 122300Z 1300/1312 06004KT 9999 FEW014 BECMG 1308/1310 00000KT 7000= TAF WAVV 122300Z 1300/1312 15006KT 9999 SCT020 BECMG 130/1306 15016KT= TAF WAKT 122300Z 1300/1312 18004KT 9999 SCT010= TAF WAKK 122300Z 1300/1312 33005KT 5000 -RA BKN015 BECMG 1303/1305 9000 NSW= FTID31 WAJJ 122300 TAF WAJJ 122300Z 1300/1324 13006KT 9999 FEW013 BECMG 1304/1306 28008KT TEMPO 1306/1309 VCSH FEW012CB FEW013=
Tafor2021-01-12 16:32:38FTID43 WAJJ 121700 TAF WAJI 121700Z 1218/1306 00000KT 9999 FEW014= TAF WAVV 121700Z 1218/1306 00000KT 2000 BR BKN003 TEMPO 1219/1221 RA BECMG 1221/1223 33003KT 7000 NSW BKN012= TAF WAKT 121700Z 1218/1306 00000KT 8000 SCT011 TEMPO 1218/1220 5000 -RA BECMG 1222/1223 12003KT= TAF WAKK 121700Z 1218/1306 00000KT 7000 SCT015 TEMPO 1219/1221 -RA BKN014 BECMG 1221/1223 26004KT 9999= FTID31 WAJJ 121700 TAF WAJJ 121700Z 1218/1318 00000KT 9999 FEW013 BECMG 1221/1223 12004KT TEMPO 1305/1308 VCSH FEW012CB FEW013=
Tafor2021-01-12 10:57:37FTID43 WAJJ 121100 TAF WAJI 121100Z 1212/1224 00000KT 7000 FEW014 BECMG 1221/1223 08004KT 9999= TAF WAVV 121100Z 1212/1224 00000KT 3000 BR BKN005 TEMPO 1212/1214 RA BECMG 1221/1223 33005KT 7000 NSW BKN015= TAF WAKT 121100Z 1212/1224 00000KT 8000 SCT012 TEMPO 1212/1215 5000 RA FEW009CB BKN010= TAF WAKK 121100Z 1212/1224 24006KT 9000 SCT017 TEMPO 1214/1217 5000 RA BKN014= FTID31 WAJJ 121100 TAF WAJJ 121100Z 1212/1312 28002KT 9999 FEW013 BECMG 1214/1215 00000KT BECMG 1221/1223 13004KT=
Tafor2021-01-09 04:53:17FTID31 WAJJ 090500 TAF WAJJ 090500Z 0906/1006 28006KT 9999 FEW013 TEMPO 0906/0909 VCSH FEW012CB SCT013 BECMG 0913/0915 00000KT= FTID43 WAJJ 090500 TAF WAJI 090500Z 0906/0918 22004KT 9999 SCT015 BECMG 0910/0912 00000KT 7000= TAF WAVV 090500Z 0906/0918 15016KT 9999 SCT020 TEMPO 0906/0908 VCSH BKN020 BECMG 0910/0912 3000 BR BKN004= TAF WAKT 090500Z 0906/0918 00000KT 9000 SCT010= TAF WAKK 090500Z 0906/0918 28008KT 9000 BKN016 TEMPO 0906/0908 5000 RA FEW015CB BECMG 0910/0912 6000 PROB40 TEMPO 0915/0918 4000 RA=
Tafor2021-01-05 10:39:26TAF WAJJ 051100Z 0512/0612 00000KT 9999 FEW013 BECMG 0519/0521 36002KT BECMG 0600/0602 15006KT= TAF WAJI 051100Z 0512/0624 00000KT 9999 FEW015= TAF WAVV 051100Z 0512/0624 18006KT 4000 BR BKN008 BECMG 0517/0518 2000 BR BKN003 BECMG 0520/0522 4000 BR BKN008 BECMG 0522/0524 7000 NSW SCT012= TAF WAKT 051100Z 0512/0624 00000KT 9999 SCT009 PROB30 TEMPO 0514/0517 7000 -RA= TAF WAKK 051100Z 0512/0624 29007KT 9999 BKN015 TEMPO 0512/0516 5000 -RA=
Tafor2021-01-03 22:51:04FTID43 WAJJ 032300 TAF WAJI 032300Z 0400/0412 08004KT 9999 FEW015 BECMG 0403/0406 24003KT= TAF WAVV 032300Z 0400/0412 15003KT 9999 SCT020 BECMG 0402/0404 15015KT BECMG 0410/0412 3000 BR BKN004= TAF WAKT 032300Z 0400/0412 24003KT 9999 SCT010= TAF WAKK 032300Z 0400/0412 32005KT 9000 BKN017 TEMPO 0403/0406 5000 -RA BKN014= FTID31 WAJJ 032300 TAF WAJJ 032300Z 0400/0424 15003KT 9999 SCT013 BECMG 0403/0405 28008KT TEMPO 0406/0409 VCSH FEW012CB FEW013 BECMG 0410/0412 00000KT=
Tafor2021-01-03 16:41:19FTID31 WAJJ 031700 TAF WAJJ 031700Z 0318/0418 27003KT 9999 SCT013 BECMG 0320/0322 12004KT TEMPO 0405/0408 VCSH FEW012CB FEW013= FTID43 WAJJ 031700 TAF WAJI 031700Z 0318/0406 24003KT 7000 FEW015 BECMG 0320/0322 02004KT 9999= TAF WAVV 031700Z 0318/0406 15003KT 2000 BR BKN005 TEMPO 0318/0320 -RA BECMG 0321/0323 9000 NSW BKN015= TAF WAKT 031700Z 0318/0406 00000KT 7000 SCT010 BECMG 0421/0423 08004KT 9999= TAF WAKK 031700Z 0318/0406 00000KT 7000 SCT018 BECMG 0320/0322 27006KT 9999=
Tafor2021-01-03 10:42:22FTID43 WAJJ 031100 TAF WAJI 031100Z 0312/0324 23004KT 9999 FEW015 BECMG 0313/0315 00000KT 7000= TAF WAVV 031100Z 0312/0324 15005KT 3000 BR BKN004 TEMPO 0314/0316 RA BECMG 0321/0323 33003KT 7000 NSW BKN011= TAF WAKT 031100Z 0312/0324 00000KT 6000 SCT010 TEMPO 1313/0315 RA BKN009= TAF WAKK 021100Z 0312/0324 24004KT 9000 SCT017= FTID31 WAJJ 031100 TAF WAJJ 031100Z 0312/0412 28003KT 9999 FEW013 PROB30 TEMPO 0314/0316 7000 -RA BECMG 0316/0318 00000KT=
Tafor2020-12-28 22:37:07FTID43 WAJJ 282300 TAF WAJI 282300Z 2900/2912 34005KT 9999 FEW015 BECMG 2908/2910 00000KT 7000= TAF WAVV 282300Z 2900/2912 15004KT 99999 SCT020 TEMPO 2904/2906 15016KT VCSH BKN018= TAF WAKT 282300Z 2900/2912 32005KT 9999 SCT010 BECMG 2909/2911 00000KT 7000= TAF WAKK 282300Z 2900/2912 25005KT 9999 SCT016= FTID31 WAJJ 282300 TAF WAJJ 282300Z 2900/2924 13004KT 9999 FEW013 BECMG 2903/2905 28008KT TEMPO 2905/2908 VCSH FEW012CB FEW013 BECMG 2910/2912 00000KT=
Tafor2020-12-28 16:52:59 FTID43 WAJJ 281700 TAF WAJI 281700Z 2818/2906 00000KT 9999 SCT015 BECMG 2820/2822 22003KT= TAF WAVV 281700Z 2818/2906 15003KT 2000 BR BKN004 TEMPO 2818/2820 -RA BECMG 2821/2823 7000 NSW BKN011= TAF WAKT 281700Z 2818/2906 00000KT 7000 SCT009 BECMG 2822/2823 08004KT 9999= TAF WAKK 281700Z 2818/2906 26004KT 7000 SCT016 BECMG 2820/2822 9999= FTID31 WAJJ 281700 TAF WAJJ 281700Z 2818/2918 28003KT 9999 FEW013 BECMG 2820/2822 12004KT TEMPO 2905/2908 VCSH FEW012CB FEW013=
Tafor2020-12-28 10:50:38FTID43 WAJJ 281100 TAF WAJI 281100Z 2812/2824 22002KT 7000 SCT015 BECMG 2814/2816 00000KT= TAF WAVV 281100Z 2812/2824 30003KT 3000 BR BKN005 BECMG 2821/2823 7000 NSW BKN011= TAF WAKT 281100Z 2812/2824 00000KT 7000 SCT010 BECMG 2821/2823 08004KT 9999= TAF WAKK 281100Z 2812/2824 22003KT 8000 SCT017 TEMPO 2816/2618 -RA BKN015= FTID31 WAJJ 281100 TAF WAJJ 281100Z 2812/2912 00000KT 9999 FEW013 PROB30 TEMPO 2816/2818 7000 -RA BECMG 2820/2822 26004KT=
Tafor2020-12-13 22:54:00FTID31 WAJJ 132300 TAF WAJJ 132300Z 1400/1424 12004KT 9999 SCT013 BECMG 1403/1405 28008KT TEMPO 1406/1409 VCSH FEW012CB FEW013 BECMG 1412/1414 00000KT= FTID43 WAJJ 132300 TAF WAJI 132300Z 1400/1412 32003KT 9999 FEW014= TAF WAVV 132300Z 1400/1412 15004KT 9999 SCT020 BECMG 1402/1404 15016KT= TAF WAKT 132300Z 1400/1412 34003KT 9999 SCT010 BECMG 1409/1411 00000KT 7000= TAF WAKK 132300Z 1400/1412 20006KT 9999 SCT016 TEMPO 1402/1405 5000 RA PROB40 TEMPO 1411/1412 5000 RA BECMG 1410/1412 6000=
Tafor2020-12-13 16:55:04FTID43 WAJJ 131700 TAF WAJI 131700Z 1318/1406 00000KT 7000 SCT016 BECMG 1320/1322 08004KT 9999= TAF WAVV 131700Z 1318/1406 15003KT 3000 BR BKN005 BECMG 1321/1323 9000 NSW BKN011= TAF WAKT 131700Z 1318/1406 00000KT 9000 SCT010 BECMG 1322/1324 26004KT= TAF WAKK 131700Z 1318/1406 00000KT 7000 SCT017= BECMG 1320/1322 23005KT 9999= FTID31 WAJJ 131700 TAF WAJJ 131700Z 1318/1418 00000KT 9999 SCT013 BECMG 1320/1322 12004KT BECMG 1402/1404 27006KT TEMPO 1405/1408 VCSH FEW012CB FEW013=
Tafor2020-12-13 10:52:54FTID31 WAJJ 131100 TAF WAJJ 131100Z 1312/1412 00000KT 9999 FEW013 PROB40 TEMPO 1313/1315 7000 TSRA FEW011CB SCT012 BECMG 1320/1322 14003KT= FTID43 WAJJ 131100 TAF WAJI 131100Z 1312/1324 00000KT 9000 FEW014 TEMPO 1312/1315 6000 RA BKN013= TAF WAVV 131100Z 1312/1324 15004KT 3000 BR BKN003 BECMG 1320/1322 33003KT 8000 NSW BKN011= TAF WAKT 131100Z 1312/1324 28003KT 8000 SCT010= TAF WAKK 131100Z 1312/1324 06004KT 9000 SCT017 BECMG 1316/1318 00000KT=
Tafor2020-12-09 04:57:36FTID43 WAJJ 090500 TAF WAJI 090500Z 0906/0918 08004KT 9999 FEW014 BECMG 0909/0911 00000KT 7000= TAF WAVV 090500Z 0906/0918 15016KT 9999 BKN020 BECMG 0909/0911 15003KT 3000 BR BKN004= TAF WAKT 090500Z 0906/0918 32003KT 9999 SCT010 BECMG 0909/0911 00000KT 7000= TAF WAKK 090500Z 0906/0918 22004KT 9999 SCT016 BECMG 0911/0912 6000= FTID31 WAJJ 090500 TAF WAJJ 090500Z 0906/1006 28008KT 9999 SCT013 TEMPO 0906/0908 7000 TSRA FEW011CB SCT012 BECMG 0911/0913 00000KT BECMG 0922/0924 12004KT=
Tafor2020-12-07 23:03:24TAF WAJI 072300Z 0800/0812 28004KT 9999 FEW014 BECMG 0808/0810 00000KT 7000= TAF WAVV 072300Z 0800/0812 34004KT 9999 SCT020 BECMG 0804/0806 15014KT= TAF WAKT 072300Z 0800/0812 29004KT 9999 SCT010 TEMPO 0801/0803 7000 -RA BECMG 0809/0811 00000KT= TAF WAKK 072300Z 0800/0812 35007KT 9999 SCT016 PROB30 TEMPO 0802/0805 5000 -RA BKN015 BECMG 0811/0812 6000=
Tafor2020-12-07 23:02:58TAF WAJJ 072300Z 0800/0824 15005KT 9999 SCT013 BECMG 0804/0807 28006KT PROB40 TEMPO 0807/0810 7000 -RA FEW012CB FEW013 BECMG 0812/0814 00000KT=
Tafor2020-12-06 22:51:48FTID31 WAJJ 062300 TAF WAJJ 062300Z 0700/0724 15004KT 9999 SCT013 BECMG 0703/0705 28006KT TEMPO 0705/0709 VCSH FEW012CB FEW013 BECMG 0711/0713 00000KT=
Tafor2020-12-06 22:51:37FTID43 WAJJ 062300 TAF WAJI 062300Z 0700/0712 08004KT 9999 FEW014 BECMG 0708/0710 00000KT 7000= TAF WAVV 062300Z 0700/0712 33003KT 9999 SCT020 BECMG 0702/0704 15016KT TEMPO 0706/0708 7000 VCSH BKN012= TAF WAKT 062300Z 0700/0712 29004KT 9999 SCT010 BECMG 0709/0711 00000KT= TAF WAKK 062300Z 0700/0712 05005KT 9999 SCT016 BECMG 0703/0704 17008KT BECMG 0710/0711 6000=
Tafor2020-12-06 17:09:27FTID43 WAJJ 061700 TAF WAJI 061700Z 0618/0706 00000KT 9999 FEW015= TAF WAVV 061700Z 0618/0706 00000KT 3000 BR BKN002 BECMG 0621/0623 32003KT 9000 NSW BKN012= TAF WAKT 061700Z 0618/0706 00000KT 8000 SCT009= TAF WAKK 061700Z 0618/0706 16004KT 8000 SCT017 TEMPO 0618/0620 5000 RA BKN016= FTID31 WAJJ 061700 TAF WAJJ 061700Z 0618/0718 00000KT 9999 SCT012 PROB40 TEMPO 0619/0621 7000 -RA BECMG 0621/0623 13004KT TEMPO 0705/0709 VCSH FEW012CB FEW013=
Tafor2020-12-06 10:55:17FTID43 WAJJ 061100 TAF WAJI 061100Z 0612/0624 00000KT 7000 FEW016 TEMPO 0612/0615 -TSRA FEW014CB FEW016 BECMG 0621/0623 08004KT 9999= TAF WAVV 061100Z 0612/0624 15002KT 3000 BR BKN004 BECMG 0613/0615 RA BECMG 0621/0623 33003KT 9000 NSW BKN011= TAF WAKT 061100Z 0612/0624 00000KT 8000 SCT009 TEMPO 0612/0614 4000 RA BKN009= TAF WAKK 061100Z 0612/0624 16004KT 8000 SCT017 TEMPO 0612/0614 5000 RA BKN016= FTID31 WAJJ 061100 TAF WAJJ 061100Z 0612/0712 00000KT 9000 SCT012 TEMPO 0613/0615 6000 RA BKN011 BECMG 0620/0622 14003KT=